Time;durP1;ratioP1;P1;durP2;ratioP2;P2;SDS_P1;SDS_P2;PMS_P1;PMS_P2;Temp;Humidity;BMP_temperature;BMP_pressure;BME280_temperature;BME280_humidity;BME280_pressure;Samples;Min_cycle;Max_cycle;Signal;HPM_P1;HPM_P2
2021/12/24 00:00:10;;;;;;;51.47;21.30;;;9.50;99.90;;;;;;5028933;28;20026;-77
2021/12/24 00:02:37;;;;;;;46.58;19.50;;;9.50;99.90;;;;;;5029252;28;20061;-78
2021/12/24 00:05:04;;;;;;;53.72;22.75;;;9.50;99.90;;;;;;5029013;28;20025;-77
2021/12/24 00:07:29;;;;;;;52.35;21.77;;;9.60;99.90;;;;;;5029021;28;20044;-77
2021/12/24 00:09:55;;;;;;;51.50;22.42;;;9.60;99.90;;;;;;5028952;28;20470;-78
2021/12/24 00:12:23;;;;;;;51.47;23.70;;;9.60;99.90;;;;;;5028944;28;20491;-76
2021/12/24 00:14:52;;;;;;;54.75;24.75;;;9.60;99.90;;;;;;5029151;28;20075;-77
2021/12/24 00:17:24;;;;;;;51.28;24.58;;;9.70;99.90;;;;;;5029144;28;20049;-78
2021/12/24 00:20:30;;;;;;;61.13;26.83;;;9.60;99.90;;;;;;5029102;28;20029;-77
2021/12/24 00:23:22;;;;;;;65.93;28.70;;;9.70;99.90;;;;;;5028455;28;20395;-76
2021/12/24 00:36:38;;;;;;;63.28;26.60;;;9.80;99.90;;;;;;5028557;28;20040;-77
2021/12/24 00:39:04;;;;;;;73.93;27.75;;;9.90;99.90;;;;;;5028535;28;20017;-78
2021/12/24 00:41:29;;;;;;;62.85;25.17;;;9.90;99.90;;;;;;5028544;28;20014;-78
2021/12/24 00:43:55;;;;;;;62.92;24.35;;;9.90;99.90;;;;;;5027192;28;20033;-76
2021/12/24 00:46:20;;;;;;;62.90;24.23;;;9.90;99.90;;;;;;5028565;28;20044;-78
2021/12/24 00:48:48;;;;;;;52.80;22.67;;;10.00;99.90;;;;;;5028372;28;20028;-77
2021/12/24 00:51:29;;;;;;;63.30;22.92;;;10.00;99.90;;;;;;5028224;28;20482;-78
2021/12/24 00:56:21;;;;;;;55.75;23.40;;;10.10;99.90;;;;;;5028121;28;20135;-77
2021/12/24 00:58:47;;;;;;;56.63;22.05;;;10.10;99.90;;;;;;5028510;28;20374;-76
2021/12/24 01:01:15;;;;;;;60.47;23.17;;;10.10;99.90;;;;;;5028295;28;20473;-76
2021/12/24 01:03:41;;;;;;;53.50;21.33;;;10.10;99.90;;;;;;5028244;28;20033;-78
2021/12/24 01:06:07;;;;;;;65.82;23.02;;;10.10;99.90;;;;;;5028028;28;20029;-77
2021/12/24 01:08:33;;;;;;;59.20;22.15;;;10.10;99.90;;;;;;5028183;28;20021;-77
2021/12/24 01:11:03;;;;;;;53.47;20.52;;;10.20;99.90;;;;;;5026661;28;20051;-77
2021/12/24 01:13:29;;;;;;;49.08;21.20;;;10.10;99.90;;;;;;5028027;28;20025;-77
2021/12/24 01:16:03;;;;;;;52.83;19.13;;;10.20;99.90;;;;;;5027834;28;20025;-77
2021/12/24 01:21:29;;;;;;;49.20;19.60;;;10.20;99.90;;;;;;5027810;28;20565;-77
2021/12/24 01:24:05;;;;;;;48.08;19.02;;;10.20;99.90;;;;;;5027947;28;20087;-77
2021/12/24 01:26:46;;;;;;;50.33;18.90;;;10.20;99.90;;;;;;5027787;28;20459;-77
2021/12/24 01:40:24;;;;;;;46.05;17.27;;;10.20;99.90;;;;;;5027814;28;20068;-77
2021/12/24 01:42:50;;;;;;;42.38;16.60;;;10.20;99.90;;;;;;5026207;28;20030;-77
2021/12/24 01:45:28;;;;;;;43.60;16.40;;;10.20;99.90;;;;;;5026552;28;20029;-77
2021/12/24 01:47:56;;;;;;;48.17;17.08;;;10.30;99.90;;;;;;5027494;28;20059;-77
2021/12/24 01:50:23;;;;;;;42.05;16.25;;;10.20;99.90;;;;;;5027327;28;20067;-77
2021/12/24 01:52:50;;;;;;;47.67;16.45;;;10.30;99.90;;;;;;5027345;28;20498;-78
2021/12/24 01:55:17;;;;;;;40.75;15.63;;;10.20;99.90;;;;;;5027756;28;20442;-77
2021/12/24 01:57:43;;;;;;;46.17;15.30;;;10.30;99.90;;;;;;5027685;28;20025;-77
2021/12/24 02:00:15;;;;;;;43.33;14.50;;;10.30;99.90;;;;;;5027377;28;20089;-77
2021/12/24 02:02:41;;;;;;;35.58;13.55;;;10.30;99.90;;;;;;5027290;28;20069;-78
2021/12/24 02:05:08;;;;;;;43.15;13.93;;;10.20;99.90;;;;;;5027187;28;20067;-77
2021/12/24 02:07:33;;;;;;;34.95;13.80;;;10.30;99.90;;;;;;5027125;28;20026;-76
2021/12/24 02:09:59;;;;;;;33.25;13.27;;;10.20;99.90;;;;;;5027157;28;20391;-76
2021/12/24 02:12:26;;;;;;;35.03;14.77;;;10.20;99.90;;;;;;5027066;28;20025;-78
2021/12/24 02:14:56;;;;;;;37.50;14.55;;;10.20;99.90;;;;;;5027246;28;20026;-77
2021/12/24 02:30:49;;;;;;;32.85;12.95;;;10.20;99.90;;;;;;5027134;28;20524;-77
2021/12/24 02:33:15;;;;;;;37.40;12.88;;;10.20;99.90;;;;;;5026809;28;20213;-77
2021/12/24 02:35:41;;;;;;;34.25;11.77;;;10.20;99.90;;;;;;5029844;28;20386;-77
2021/12/24 02:38:07;;;;;;;30.85;11.35;;;10.20;99.90;;;;;;5028339;28;20045;-77
2021/12/24 02:40:34;;;;;;;26.60;10.15;;;10.20;99.90;;;;;;5026401;28;20025;-77
2021/12/24 02:43:00;;;;;;;24.90;9.80;;;10.20;99.90;;;;;;5026856;28;20051;-77
2021/12/24 02:45:33;;;;;;;26.77;11.50;;;10.20;99.90;;;;;;5026935;28;20460;-77
2021/12/24 02:55:57;;;;;;;32.03;11.27;;;10.10;99.90;;;;;;5027175;28;20086;-77
2021/12/24 02:58:23;;;;;;;24.98;11.48;;;10.10;99.90;;;;;;5029977;28;20025;-77
2021/12/24 03:00:49;;;;;;;30.17;11.07;;;10.10;99.90;;;;;;5030436;28;20074;-77
2021/12/24 03:03:15;;;;;;;30.92;11.15;;;10.10;99.90;;;;;;5029712;28;20036;-77
2021/12/24 03:05:40;;;;;;;29.13;10.93;;;10.10;99.90;;;;;;5030015;28;20355;-77
2021/12/24 03:08:06;;;;;;;30.38;10.38;;;10.10;99.90;;;;;;5029824;28;20021;-77
2021/12/24 03:10:33;;;;;;;26.33;11.00;;;10.10;99.90;;;;;;5029894;28;20029;-76
2021/12/24 03:12:58;;;;;;;27.40;10.57;;;10.10;99.90;;;;;;5029821;28;20033;-77
2021/12/24 03:15:25;;;;;;;29.08;10.10;;;10.10;99.90;;;;;;5029729;28;20044;-77
2021/12/24 03:17:55;;;;;;;28.40;10.60;;;10.10;99.90;;;;;;5029448;28;20018;-77
2021/12/24 03:20:21;;;;;;;32.63;10.40;;;10.10;99.90;;;;;;5029989;28;20022;-77
2021/12/24 03:25:16;;;;;;;26.05;9.65;;;10.10;99.90;;;;;;5029723;28;20036;-77
2021/12/24 03:27:42;;;;;;;33.08;10.13;;;10.10;99.90;;;;;;5029473;28;20025;-77
2021/12/24 03:30:09;;;;;;;28.95;9.73;;;10.10;99.90;;;;;;5029246;28;20056;-77
2021/12/24 03:32:35;;;;;;;24.95;9.38;;;10.10;99.90;;;;;;5029762;28;20033;-77
2021/12/24 03:35:02;;;;;;;26.25;9.15;;;10.10;99.90;;;;;;5029322;28;20378;-77
2021/12/24 03:37:27;;;;;;;31.58;9.77;;;10.10;99.90;;;;;;5029476;28;20027;-77
2021/12/24 03:39:53;;;;;;;28.83;9.20;;;10.10;99.90;;;;;;5029263;28;20026;-77
2021/12/24 03:42:18;;;;;;;35.67;9.35;;;10.10;99.90;;;;;;5029343;28;20479;-77
2021/12/24 03:44:52;;;;;;;26.23;9.32;;;10.10;99.90;;;;;;5029157;28;20706;-77
2021/12/24 03:47:20;;;;;;;33.33;8.80;;;10.10;99.90;;;;;;5029628;28;20377;-77
2021/12/24 03:54:59;;;;;;;31.35;8.43;;;10.10;99.90;;;;;;5029239;28;20036;-77
2021/12/24 03:57:30;;;;;;;36.47;8.60;;;10.00;99.90;;;;;;5029057;28;20022;-77
2021/12/24 03:59:59;;;;;;;34.05;8.40;;;10.00;99.90;;;;;;5029045;28;20090;-77
2021/12/24 04:02:25;;;;;;;30.52;9.45;;;10.00;99.90;;;;;;5028878;28;20029;-78
2021/12/24 04:04:50;;;;;;;34.40;9.02;;;10.00;99.90;;;;;;5028951;28;20479;-77
2021/12/24 04:07:17;;;;;;;29.90;7.68;;;10.00;99.90;;;;;;5043831;28;20063;-77
2021/12/24 04:09:51;;;;;;;26.10;7.45;;;10.00;99.90;;;;;;5028286;28;20057;-77
2021/12/24 04:12:17;;;;;;;31.60;7.60;;;10.00;99.90;;;;;;5029356;28;20478;-77
2021/12/24 04:14:42;;;;;;;35.20;7.72;;;10.00;99.90;;;;;;5028698;28;20080;-77
2021/12/24 04:17:08;;;;;;;34.03;7.15;;;10.00;99.90;;;;;;5028982;28;20432;-78
2021/12/24 04:25:03;;;;;;;31.27;6.93;;;9.90;99.90;;;;;;5028972;28;20044;-77
2021/12/24 04:27:30;;;;;;;31.77;7.05;;;9.90;99.90;;;;;;5028746;28;20021;-77
2021/12/24 04:30:08;;;;;;;30.45;6.97;;;9.90;99.90;;;;;;5043691;28;20539;-77
2021/12/24 04:32:54;;;;;;;24.08;6.93;;;9.90;99.90;;;;;;5028615;28;20051;-77
2021/12/24 04:38:09;;;;;;;30.50;6.82;;;9.90;99.90;;;;;;5028743;28;20082;-78
2021/12/24 04:51:59;;;;;;;31.83;6.60;;;9.70;99.90;;;;;;5129928;27;20318;-77
2021/12/24 05:02:57;;;;;;;28.17;6.20;;;9.70;99.90;;;;;;5129374;27;20038;-77
2021/12/24 05:05:38;;;;;;;30.85;6.75;;;9.70;99.90;;;;;;5129333;27;20340;-77
2021/12/24 05:08:16;;;;;;;33.85;7.03;;;9.70;99.90;;;;;;5111999;27;20088;-77
2021/12/24 05:10:42;;;;;;;32.58;6.82;;;9.70;99.90;;;;;;5129217;27;20027;-77
2021/12/24 05:13:10;;;;;;;30.17;6.68;;;9.70;99.90;;;;;;5129366;27;20605;-77
2021/12/24 05:15:38;;;;;;;32.95;6.80;;;9.60;99.90;;;;;;5030047;27;20479;-77
2021/12/24 05:23:25;;;;;;;30.80;6.53;;;9.70;99.90;;;;;;5028170;28;20071;-77
2021/12/24 05:25:51;;;;;;;37.47;7.15;;;9.60;99.90;;;;;;5043057;28;20067;-77
2021/12/24 05:28:18;;;;;;;26.85;6.00;;;9.60;99.90;;;;;;5027666;28;20022;-77
2021/12/24 05:30:43;;;;;;;29.92;6.13;;;9.60;99.90;;;;;;5027628;28;20047;-77
2021/12/24 05:33:13;;;;;;;31.98;6.07;;;9.60;99.90;;;;;;5027692;28;20022;-77
2021/12/24 05:35:39;;;;;;;27.90;6.30;;;9.60;99.90;;;;;;5027917;28;20018;-77
2021/12/24 05:38:05;;;;;;;35.33;6.78;;;9.60;99.90;;;;;;5027750;28;20032;-78
2021/12/24 05:40:31;;;;;;;34.63;6.47;;;9.60;99.90;;;;;;5027557;28;20024;-77
2021/12/24 05:42:56;;;;;;;38.70;6.03;;;9.60;99.90;;;;;;5042773;28;20022;-78
2021/12/24 05:45:24;;;;;;;36.95;6.90;;;9.50;99.90;;;;;;5027490;28;20094;-77
2021/12/24 05:47:50;;;;;;;36.28;6.75;;;9.50;99.90;;;;;;5028211;28;20078;-77
2021/12/24 05:50:16;;;;;;;42.35;6.75;;;9.50;99.90;;;;;;5027437;28;20018;-77
2021/12/24 05:52:42;;;;;;;35.72;6.43;;;9.50;99.90;;;;;;5027454;28;20041;-77
2021/12/24 05:55:09;;;;;;;23.38;5.32;;;9.50;99.90;;;;;;5027604;28;20033;-77
2021/12/24 05:57:34;;;;;;;38.30;5.68;;;9.50;99.90;;;;;;5027682;28;20022;-77
2021/12/24 06:00:05;;;;;;;28.70;6.32;;;9.50;99.90;;;;;;5027837;28;20109;-77
2021/12/24 06:02:33;;;;;;;23.77;6.32;;;9.40;99.90;;;;;;5027116;28;20022;-77
2021/12/24 06:04:59;;;;;;;37.53;7.68;;;9.40;99.90;;;;;;5042607;28;20026;-76
2021/12/24 06:07:25;;;;;;;27.38;6.32;;;9.40;99.90;;;;;;5027219;28;20021;-77
2021/12/24 06:09:51;;;;;;;37.80;6.97;;;9.40;99.90;;;;;;5027462;28;20523;-77
2021/12/24 06:12:16;;;;;;;42.10;6.70;;;9.30;99.90;;;;;;5027175;28;20025;-77
2021/12/24 06:14:45;;;;;;;30.45;6.07;;;9.30;99.90;;;;;;5027089;28;20021;-77
2021/12/24 06:17:15;;;;;;;37.42;6.82;;;9.30;99.90;;;;;;5027057;28;20021;-77
2021/12/24 06:19:42;;;;;;;35.75;6.78;;;9.30;99.90;;;;;;5027412;28;20030;-76
2021/12/24 06:22:08;;;;;;;36.53;6.45;;;9.30;99.90;;;;;;5027214;28;20065;-77
2021/12/24 06:24:34;;;;;;;37.00;8.40;;;9.30;99.90;;;;;;5027263;28;20061;-77
2021/12/24 06:26:59;;;;;;;28.92;7.07;;;9.30;99.90;;;;;;5027073;28;20025;-76
2021/12/24 06:29:25;;;;;;;30.02;5.82;;;9.30;99.90;;;;;;5027295;28;20125;-76
2021/12/24 06:31:51;;;;;;;26.70;6.85;;;9.30;99.90;;;;;;5028417;28;20478;-75
2021/12/24 06:34:17;;;;;;;33.15;6.70;;;9.20;99.90;;;;;;5030477;28;20026;-77
2021/12/24 06:36:47;;;;;;;37.83;5.95;;;9.20;99.90;;;;;;5030409;28;20106;-77
2021/12/24 06:39:14;;;;;;;37.45;6.95;;;9.20;99.90;;;;;;5030512;28;20022;-77
2021/12/24 06:41:39;;;;;;;34.28;5.90;;;9.20;99.90;;;;;;5047351;28;20032;-76
2021/12/24 06:44:09;;;;;;;33.03;7.00;;;9.20;99.90;;;;;;5032960;28;20101;-78
2021/12/24 06:46:35;;;;;;;36.60;6.90;;;9.20;99.90;;;;;;5032535;28;20482;-78
2021/12/24 06:49:01;;;;;;;35.58;6.78;;;9.10;99.90;;;;;;5032239;28;20024;-78
2021/12/24 06:51:27;;;;;;;31.23;6.70;;;9.20;99.90;;;;;;5032150;28;20371;-78
2021/12/24 06:53:54;;;;;;;35.63;5.97;;;9.10;99.90;;;;;;5032197;28;20036;-77
2021/12/24 06:56:19;;;;;;;36.60;6.07;;;9.10;99.90;;;;;;5032440;28;20394;-76
2021/12/24 06:58:45;;;;;;;34.30;6.15;;;9.10;99.90;;;;;;5050185;28;20017;-76
2021/12/24 07:01:11;;;;;;;31.73;6.15;;;9.10;99.90;;;;;;5030125;28;20567;-78
2021/12/24 07:03:37;;;;;;;33.08;6.35;;;9.10;99.90;;;;;;5030225;28;20022;-78
2021/12/24 07:06:04;;;;;;;34.97;6.50;;;9.10;99.90;;;;;;5030399;28;20170;-78
2021/12/24 07:08:30;;;;;;;37.90;6.90;;;9.10;99.90;;;;;;5029857;28;20021;-77
2021/12/24 07:10:55;;;;;;;31.63;5.60;;;9.10;99.90;;;;;;5029426;28;20030;-77
2021/12/24 07:13:21;;;;;;;35.55;6.03;;;9.10;99.90;;;;;;5030835;28;20029;-77
2021/12/24 07:15:46;;;;;;;30.05;5.47;;;9.10;99.90;;;;;;5029751;28;20017;-77
2021/12/24 07:18:12;;;;;;;32.67;5.57;;;9.10;99.90;;;;;;5029669;28;20060;-77
2021/12/24 07:20:38;;;;;;;27.83;5.13;;;9.10;99.90;;;;;;5029910;28;20124;-78
2021/12/24 07:23:04;;;;;;;29.73;5.20;;;9.10;99.90;;;;;;5029619;28;20116;-79
2021/12/24 07:25:30;;;;;;;35.00;4.82;;;9.10;99.90;;;;;;5027893;28;20397;-77
2021/12/24 07:27:56;;;;;;;25.55;5.05;;;9.10;99.90;;;;;;5028162;28;20021;-77
2021/12/24 07:30:22;;;;;;;25.08;5.22;;;9.10;99.90;;;;;;5030021;28;20386;-78
2021/12/24 07:32:48;;;;;;;32.85;4.60;;;9.10;99.90;;;;;;5028365;28;20014;-77
2021/12/24 07:35:13;;;;;;;35.60;5.47;;;9.10;99.90;;;;;;5040569;28;20029;-75
2021/12/24 07:37:39;;;;;;;28.58;4.53;;;9.10;99.90;;;;;;5038683;28;20044;-77
2021/12/24 07:40:06;;;;;;;23.70;4.82;;;9.10;99.90;;;;;;5048479;27;20477;-77
2021/12/24 07:42:32;;;;;;;27.35;4.30;;;9.10;99.90;;;;;;5038217;28;20021;-76
2021/12/24 07:44:58;;;;;;;27.13;4.53;;;9.10;99.90;;;;;;5052982;27;20024;-76
2021/12/24 07:47:28;;;;;;;30.83;4.85;;;9.10;99.90;;;;;;5033139;28;20490;-76
2021/12/24 07:50:01;;;;;;;30.90;4.75;;;9.10;99.90;;;;;;5034389;28;20037;-76
2021/12/24 07:52:28;;;;;;;39.00;5.07;;;9.10;99.90;;;;;;5029167;28;20448;-76
2021/12/24 07:54:54;;;;;;;24.13;3.95;;;9.10;99.90;;;;;;5037262;28;20047;-77
2021/12/24 07:57:21;;;;;;;33.03;5.03;;;9.10;99.90;;;;;;5043054;28;20537;-77
2021/12/24 07:59:47;;;;;;;25.55;4.72;;;9.10;99.90;;;;;;5037034;28;20524;-79
2021/12/24 08:02:15;;;;;;;30.75;4.72;;;9.10;99.90;;;;;;5038091;28;20033;-76
2021/12/24 08:04:44;;;;;;;29.95;4.30;;;9.10;99.90;;;;;;5034773;28;20558;-76
2021/12/24 08:07:10;;;;;;;33.33;4.13;;;9.10;99.90;;;;;;5030743;28;20386;-77
2021/12/24 08:09:37;;;;;;;22.05;4.07;;;9.10;99.90;;;;;;5032059;28;20064;-78
2021/12/24 08:12:07;;;;;;;28.95;3.83;;;9.10;99.90;;;;;;5032436;28;20045;-76
2021/12/24 08:14:34;;;;;;;29.20;4.53;;;9.10;99.90;;;;;;5035540;28;20362;-77
2021/12/24 08:16:59;;;;;;;28.98;4.07;;;9.10;99.90;;;;;;5035145;28;20672;-76
2021/12/24 08:19:25;;;;;;;25.77;5.03;;;9.10;99.90;;;;;;5039124;28;20112;-76
2021/12/24 08:21:51;;;;;;;30.23;4.03;;;9.10;99.90;;;;;;5036332;28;20017;-76
2021/12/24 08:24:17;;;;;;;38.05;4.75;;;9.10;99.90;;;;;;5039314;28;20035;-76
2021/12/24 08:26:43;;;;;;;31.95;4.25;;;9.10;99.90;;;;;;5040665;28;20030;-76
2021/12/24 08:29:09;;;;;;;30.60;4.40;;;9.20;99.90;;;;;;5036547;28;20079;-75
2021/12/24 08:31:36;;;;;;;26.13;4.32;;;9.20;99.90;;;;;;5035716;28;20037;-76
2021/12/24 08:34:03;;;;;;;28.85;4.75;;;9.20;99.90;;;;;;5035327;28;20029;-77
2021/12/24 08:36:29;;;;;;;25.08;4.75;;;9.20;99.90;;;;;;5043218;28;20351;-77
2021/12/24 08:38:55;;;;;;;24.55;4.88;;;9.20;99.90;;;;;;5035445;27;20098;-78
2021/12/24 08:41:21;;;;;;;30.77;4.82;;;9.30;99.90;;;;;;5032514;28;20119;-77
2021/12/24 08:43:48;;;;;;;35.90;4.97;;;9.30;99.90;;;;;;5030117;28;20040;-77
2021/12/24 08:46:14;;;;;;;31.17;4.95;;;9.30;99.90;;;;;;5035791;28;20025;-77
2021/12/24 08:48:39;;;;;;;37.25;5.28;;;9.30;99.90;;;;;;5038033;27;20146;-77
2021/12/24 08:51:05;;;;;;;33.95;4.88;;;9.30;99.90;;;;;;5034553;27;20070;-75
2021/12/24 08:53:31;;;;;;;26.58;5.18;;;9.30;99.90;;;;;;5038932;28;20041;-76
2021/12/24 08:55:56;;;;;;;35.85;5.60;;;9.30;99.90;;;;;;5038563;27;20044;-77
2021/12/24 08:58:22;;;;;;;28.17;5.15;;;9.40;99.90;;;;;;5040349;28;20071;-76
2021/12/24 09:00:48;;;;;;;37.10;5.72;;;9.40;99.90;;;;;;5031762;27;20021;-76
2021/12/24 09:03:13;;;;;;;27.85;5.25;;;9.40;99.90;;;;;;5041025;27;20056;-76
2021/12/24 09:05:39;;;;;;;32.80;6.05;;;9.40;99.90;;;;;;5029922;28;20033;-77
2021/12/24 09:08:05;;;;;;;31.45;5.85;;;9.40;99.90;;;;;;5047220;27;20132;-77
2021/12/24 09:10:30;;;;;;;35.90;5.15;;;9.40;99.90;;;;;;5032481;28;20021;-77
2021/12/24 09:12:56;;;;;;;31.25;4.93;;;9.40;99.90;;;;;;5035867;28;20025;-76
2021/12/24 09:15:27;;;;;;;38.33;5.43;;;9.40;99.90;;;;;;5042938;28;20031;-77
2021/12/24 09:17:53;;;;;;;25.92;4.68;;;9.30;99.90;;;;;;5036247;28;20064;-77
2021/12/24 09:20:26;;;;;;;28.85;5.35;;;9.30;99.90;;;;;;5037215;28;20090;-76
2021/12/24 09:22:53;;;;;;;33.08;5.47;;;9.40;99.90;;;;;;5042846;28;20029;-76
2021/12/24 09:25:21;;;;;;;32.58;5.35;;;9.40;99.90;;;;;;5047474;28;20093;-77
2021/12/24 09:27:46;;;;;;;33.33;5.10;;;9.40;99.90;;;;;;5030511;28;20028;-76
2021/12/24 09:30:12;;;;;;;29.88;5.78;;;9.40;99.90;;;;;;5047466;27;20049;-76
2021/12/24 09:32:38;;;;;;;34.97;5.45;;;9.40;99.90;;;;;;5046568;28;20017;-75
2021/12/24 09:35:04;;;;;;;31.40;5.80;;;9.40;99.90;;;;;;5036031;28;20077;-77
2021/12/24 09:37:30;;;;;;;20.60;5.75;;;9.40;99.90;;;;;;5031935;28;20104;-78
2021/12/24 09:39:56;;;;;;;27.95;5.47;;;9.40;99.90;;;;;;5045378;28;20103;-78
2021/12/24 09:42:24;;;;;;;26.42;5.55;;;9.40;99.90;;;;;;5041069;27;20079;-77
2021/12/24 09:44:50;;;;;;;30.55;5.65;;;9.40;99.90;;;;;;5034200;28;20128;-77
2021/12/24 09:47:18;;;;;;;34.75;6.25;;;9.40;99.90;;;;;;5053618;27;20099;-77
2021/12/24 09:49:44;;;;;;;33.28;6.13;;;9.40;99.90;;;;;;5046040;27;20029;-77
2021/12/24 09:52:11;;;;;;;33.45;5.53;;;9.40;99.90;;;;;;5057441;27;20583;-77
2021/12/24 09:54:43;;;;;;;34.95;6.15;;;9.40;99.90;;;;;;5038884;28;20017;-77
2021/12/24 09:57:09;;;;;;;27.35;6.00;;;9.40;99.90;;;;;;5040913;28;20513;-75
2021/12/24 09:59:36;;;;;;;32.30;5.88;;;9.40;99.90;;;;;;5034196;28;20026;-75
2021/12/24 10:02:02;;;;;;;32.92;5.97;;;9.40;99.90;;;;;;5036236;28;20271;-76
2021/12/24 10:04:33;;;;;;;28.83;5.65;;;9.40;99.90;;;;;;5041425;28;20036;-76
2021/12/24 10:07:08;;;;;;;34.88;5.95;;;9.40;99.90;;;;;;5042046;28;20059;-77
2021/12/24 10:09:37;;;;;;;34.13;7.25;;;9.40;99.90;;;;;;5056820;27;20015;-76
2021/12/24 10:12:13;;;;;;;36.33;6.72;;;9.40;99.90;;;;;;5037880;28;20064;-76
2021/12/24 10:14:49;;;;;;;34.85;5.97;;;9.40;99.90;;;;;;5100658;27;20366;-76
2021/12/24 10:17:23;;;;;;;30.98;6.32;;;9.40;99.90;;;;;;5051537;27;20027;-76
2021/12/24 10:19:53;;;;;;;32.00;5.95;;;9.40;99.90;;;;;;5044490;28;20133;-77
2021/12/24 10:22:19;;;;;;;29.00;5.85;;;9.40;99.90;;;;;;5033707;28;20478;-77
2021/12/24 10:25:24;;;;;;;26.88;6.00;;;9.40;99.90;;;;;;5032983;27;20094;-77
2021/12/24 10:27:49;;;;;;;33.55;6.30;;;9.40;99.90;;;;;;5078368;27;20398;-75
2021/12/24 10:30:22;;;;;;;31.65;6.15;;;9.40;99.90;;;;;;5030527;28;20041;-75
2021/12/24 10:32:55;;;;;;;26.98;6.50;;;9.50;99.90;;;;;;5032280;28;20049;-75
2021/12/24 10:35:26;;;;;;;33.92;6.20;;;9.40;99.90;;;;;;5033920;28;20017;-76
2021/12/24 10:38:15;;;;;;;30.98;6.30;;;9.40;99.90;;;;;;5042958;28;20017;-76
2021/12/24 10:40:55;;;;;;;32.72;5.68;;;9.50;99.90;;;;;;5031365;28;20024;-78
2021/12/24 10:43:30;;;;;;;37.03;5.95;;;9.50;99.90;;;;;;5032550;28;20054;-77
2021/12/24 10:46:16;;;;;;;40.33;6.32;;;9.50;99.90;;;;;;5037361;28;20021;-77
2021/12/24 10:49:13;;;;;;;29.30;6.25;;;9.50;99.90;;;;;;5046268;28;20032;-77
2021/12/24 10:52:11;;;;;;;28.42;6.00;;;9.60;99.90;;;;;;5035913;28;20018;-76
2021/12/24 10:55:01;;;;;;;27.50;5.68;;;9.60;99.90;;;;;;5052410;27;20428;-76
2021/12/24 10:57:28;;;;;;;25.55;5.85;;;9.60;99.90;;;;;;5049958;27;20021;-75
2021/12/24 10:59:57;;;;;;;30.55;5.60;;;9.70;99.90;;;;;;5036741;28;20021;-76
2021/12/24 11:02:29;;;;;;;29.83;5.95;;;9.70;99.90;;;;;;5064797;27;20044;-77
2021/12/24 11:04:55;;;;;;;28.77;5.60;;;9.80;99.90;;;;;;5035703;28;20029;-75
2021/12/24 11:07:37;;;;;;;25.48;5.00;;;9.80;99.90;;;;;;5059779;27;20033;-77
2021/12/24 11:10:14;;;;;;;27.35;4.93;;;9.80;99.90;;;;;;5036997;28;20029;-79
2021/12/24 11:12:47;;;;;;;26.80;5.20;;;9.80;99.90;;;;;;5057677;27;20089;-83
2021/12/24 11:15:33;;;;;;;30.27;5.78;;;9.80;99.90;;;;;;5051511;27;20029;-77
2021/12/24 11:18:04;;;;;;;25.75;5.22;;;9.80;99.90;;;;;;5065178;28;20040;-78
2021/12/24 11:20:31;;;;;;;31.02;5.25;;;9.80;99.90;;;;;;5043744;28;20033;-77
2021/12/24 11:23:05;;;;;;;26.38;4.60;;;9.80;99.90;;;;;;5033512;28;20029;-76
2021/12/24 11:25:40;;;;;;;72.18;7.00;;;9.80;99.90;;;;;;5037063;28;20441;-77
2021/12/24 11:28:07;;;;;;;44.17;5.88;;;9.80;99.90;;;;;;5032686;28;20034;-75
2021/12/24 11:30:35;;;;;;;27.15;5.28;;;9.80;99.90;;;;;;5032032;28;20272;-77
2021/12/24 11:33:01;;;;;;;24.13;4.80;;;9.80;99.90;;;;;;5042734;28;20033;-76
2021/12/24 11:35:29;;;;;;;28.20;4.93;;;9.80;99.90;;;;;;5032179;28;20033;-76
2021/12/24 11:37:54;;;;;;;31.30;5.43;;;9.80;99.90;;;;;;5039471;28;20021;-76
2021/12/24 11:40:23;;;;;;;34.80;5.30;;;9.80;99.90;;;;;;5040211;28;20032;-74
2021/12/24 11:42:54;;;;;;;20.80;4.90;;;9.80;99.90;;;;;;5043170;28;20022;-75
2021/12/24 11:45:22;;;;;;;32.65;9.38;;;10.00;99.90;;;;;;5034645;28;20093;-77
2021/12/24 11:47:48;;;;;;;29.00;7.15;;;10.10;99.90;;;;;;5050911;28;20340;-74
2021/12/24 11:50:14;;;;;;;27.63;4.97;;;10.30;99.90;;;;;;5052699;28;20496;-75
2021/12/24 11:52:41;;;;;;;24.20;4.57;;;10.30;99.90;;;;;;5044707;28;20034;-76
2021/12/24 11:55:07;;;;;;;29.80;5.40;;;10.50;99.90;;;;;;5040063;28;20031;-76
2021/12/24 11:57:33;;;;;;;26.40;4.30;;;10.50;99.90;;;;;;5040255;28;20033;-76
2021/12/24 12:00:10;;;;;;;32.70;4.88;;;10.50;99.90;;;;;;5039495;27;20032;-77
2021/12/24 12:02:37;;;;;;;24.40;4.95;;;10.60;99.90;;;;;;5047383;28;20082;-77
2021/12/24 12:05:22;;;;;;;24.48;4.55;;;10.60;99.90;;;;;;5044618;28;20112;-77
2021/12/24 12:07:50;;;;;;;24.55;4.78;;;10.70;99.90;;;;;;5051073;28;20029;-79
2021/12/24 12:10:49;;;;;;;21.33;4.60;;;10.90;99.90;;;;;;5031139;28;20443;-77
2021/12/24 12:13:51;;;;;;;22.08;4.25;;;10.90;99.90;;;;;;5030703;28;20041;-76
2021/12/24 12:16:42;;;;;;;33.20;4.57;;;10.90;99.90;;;;;;5033362;28;20034;-75
2021/12/24 12:24:57;;;;;;;20.38;3.92;;;11.10;99.90;;;;;;5044950;27;20496;-76
2021/12/24 12:27:37;;;;;;;25.27;4.32;;;11.20;99.90;;;;;;5042998;28;20037;-78
2021/12/24 12:30:40;;;;;;;20.05;4.28;;;11.30;99.90;;;;;;5058239;28;20053;-76
2021/12/24 12:33:10;;;;;;;27.45;4.20;;;11.30;99.90;;;;;;5061570;28;20380;-76
2021/12/24 12:35:56;;;;;;;29.17;4.82;;;11.10;99.90;;;;;;5047650;28;20021;-76
2021/12/24 12:38:25;;;;;;;29.88;4.43;;;11.10;99.90;;;;;;5057321;28;20105;-76
2021/12/24 12:40:51;;;;;;;22.52;4.72;;;11.00;99.90;;;;;;5045759;28;20524;-76
2021/12/24 12:43:19;;;;;;;28.02;4.82;;;11.00;99.90;;;;;;5041149;28;20037;-76
2021/12/24 12:45:47;;;;;;;26.33;4.72;;;10.80;99.90;;;;;;5045721;27;20153;-76
2021/12/24 12:48:23;;;;;;;21.27;5.50;;;10.80;99.90;;;;;;5039739;28;20045;-77
2021/12/24 12:50:55;;;;;;;24.40;4.80;;;11.00;99.90;;;;;;5043669;28;20035;-78
2021/12/24 12:53:34;;;;;;;30.98;4.32;;;11.10;99.90;;;;;;5043792;28;20493;-78
2021/12/24 12:56:26;;;;;;;23.05;4.15;;;11.10;99.90;;;;;;5039875;28;20070;-78
2021/12/24 12:59:01;;;;;;;22.08;4.28;;;11.10;99.90;;;;;;5044170;27;20402;-78
2021/12/24 13:01:27;;;;;;;26.77;4.55;;;11.00;99.90;;;;;;5042649;28;20028;-78
2021/12/24 13:03:56;;;;;;;28.42;4.82;;;11.00;99.90;;;;;;5042625;28;20051;-78
2021/12/24 13:06:46;;;;;;;22.08;4.15;;;11.00;99.90;;;;;;5055839;27;20125;-77
2021/12/24 13:09:16;;;;;;;26.02;4.68;;;10.90;99.90;;;;;;5041938;28;20060;-77
2021/12/24 13:11:47;;;;;;;19.45;3.95;;;10.90;99.90;;;;;;5035055;28;20081;-79
2021/12/24 13:14:14;;;;;;;22.70;4.18;;;10.90;99.90;;;;;;5033113;28;20029;-77
2021/12/24 13:17:04;;;;;;;26.13;4.55;;;10.90;99.90;;;;;;5036746;27;20102;-76
2021/12/24 13:22:32;;;;;;;20.00;4.05;;;10.90;99.90;;;;;;5043194;28;20033;-76
2021/12/24 13:25:14;;;;;;;24.33;4.82;;;10.90;99.90;;;;;;5038049;28;20033;-76
2021/12/24 13:27:48;;;;;;;16.40;4.28;;;11.00;99.90;;;;;;5036481;28;20026;-76
2021/12/24 13:30:26;;;;;;;17.50;3.70;;;11.00;99.90;;;;;;5034183;28;20067;-75
2021/12/24 13:33:01;;;;;;;23.73;4.50;;;11.00;99.90;;;;;;5034875;28;20033;-75
2021/12/24 13:35:31;;;;;;;16.48;4.28;;;11.00;99.90;;;;;;5037791;28;20020;-76
2021/12/24 13:37:57;;;;;;;21.02;4.00;;;10.90;99.90;;;;;;5031720;27;20022;-76
2021/12/24 13:40:26;;;;;;;21.08;4.32;;;10.80;99.90;;;;;;5041499;28;20074;-77
2021/12/24 13:42:58;;;;;;;21.27;4.00;;;10.80;99.90;;;;;;5036760;28;20029;-77
2021/12/24 13:45:27;;;;;;;22.60;4.75;;;10.90;99.90;;;;;;5028948;28;20021;-75
2021/12/24 13:48:15;;;;;;;18.83;4.32;;;10.90;99.90;;;;;;5041154;28;20029;-76
2021/12/24 13:56:44;;;;;;;22.80;3.95;;;11.00;99.90;;;;;;5029332;28;20052;-77
2021/12/24 13:59:12;;;;;;;18.02;3.97;;;11.00;99.90;;;;;;5032691;28;20550;-76
2021/12/24 14:01:40;;;;;;;22.08;4.40;;;10.90;99.90;;;;;;5053893;27;20029;-77
2021/12/24 14:04:06;;;;;;;25.70;4.45;;;10.90;99.90;;;;;;5033473;28;20389;-76
2021/12/24 14:06:37;;;;;;;21.10;4.75;;;10.80;99.90;;;;;;5034028;27;20033;-76
2021/12/24 14:09:11;;;;;;;21.42;4.20;;;10.80;99.90;;;;;;5034939;28;20022;-76
2021/12/24 14:11:38;;;;;;;28.35;4.75;;;10.90;99.90;;;;;;5029848;28;20105;-77
2021/12/24 14:14:10;;;;;;;22.60;5.05;;;10.90;99.90;;;;;;5040088;28;20037;-75
2021/12/24 14:19:19;;;;;;;27.40;5.80;;;10.90;99.90;;;;;;5036359;28;20026;-77
2021/12/24 14:21:46;;;;;;;24.73;4.50;;;10.90;99.90;;;;;;5039904;28;20362;-76
2021/12/24 14:24:21;;;;;;;18.40;5.25;;;10.90;99.90;;;;;;5032691;28;20065;-76
2021/12/24 14:26:55;;;;;;;24.57;5.73;;;10.90;99.90;;;;;;5033073;28;20449;-76
2021/12/24 14:29:34;;;;;;;31.92;5.60;;;10.90;99.90;;;;;;5025488;28;20042;-75
2021/12/24 14:32:02;;;;;;;15.30;4.90;;;11.00;99.90;;;;;;5027099;28;20048;-76
2021/12/24 14:34:51;;;;;;;28.08;4.97;;;11.00;99.90;;;;;;5029214;27;20021;-76
2021/12/24 14:37:34;;;;;;;20.02;5.43;;;11.00;99.90;;;;;;5036423;28;20052;-76
2021/12/24 14:40:14;;;;;;;19.73;5.15;;;11.00;99.90;;;;;;5036396;28;20501;-76